Time;durP1;ratioP1;P1;durP2;ratioP2;P2;SDS_P1;SDS_P2;PMS_P1;PMS_P2;Temp;Humidity;BMP_temperature;BMP_pressure;BME280_temperature;BME280_humidity;BME280_pressure;Samples;Min_cycle;Max_cycle;Signal;HPM_P1;HPM_P2
2023/07/02 00:00:26;;;;;;;2.20;1.67;;;;;;;22.05;89.46;98907.56;5090755;28;20084;-85
2023/07/02 00:02:51;;;;;;;2.83;1.65;;;;;;;21.97;90.61;98918.88;5092208;28;20038;-83
2023/07/02 00:05:18;;;;;;;4.18;2.25;;;;;;;22.04;90.52;98921.09;5093774;28;20039;-83
2023/07/02 00:07:43;;;;;;;7.35;2.92;;;;;;;22.20;89.17;98912.75;5090461;28;20174;-83
2023/07/02 00:10:10;;;;;;;5.90;3.40;;;;;;;22.13;88.79;98894.41;5090547;28;20107;-83
2023/07/02 00:12:36;;;;;;;3.45;2.75;;;;;;;21.98;88.42;98866.03;5090470;28;20039;-84
2023/07/02 00:15:02;;;;;;;9.60;2.88;;;;;;;22.27;87.93;98904.09;5095664;28;20023;-82
2023/07/02 00:17:28;;;;;;;2.97;1.92;;;;;;;22.15;87.44;98872.81;5092304;28;20039;-84
2023/07/02 00:19:53;;;;;;;5.63;2.40;;;;;;;22.32;86.62;98884.97;5091320;28;20048;-83
2023/07/02 00:22:19;;;;;;;4.25;2.40;;;;;;;22.22;87.55;98905.44;5090607;28;20039;-85
2023/07/02 00:24:45;;;;;;;6.35;3.10;;;;;;;21.85;88.59;98867.94;5093031;28;21896;-84
2023/07/02 00:27:10;;;;;;;4.78;3.03;;;;;;;21.97;88.42;98880.44;5093600;28;20065;-83
2023/07/02 00:29:35;;;;;;;4.80;1.90;;;;;;;22.27;88.16;98916.69;5092271;28;20096;-84
2023/07/02 00:32:01;;;;;;;5.35;3.63;;;;;;;22.14;88.68;98912.25;5091264;28;20371;-83
2023/07/02 00:34:26;;;;;;;2.63;1.52;;;;;;;22.13;88.84;98904.31;5090186;28;20068;-85
2023/07/02 00:36:52;;;;;;;7.22;2.75;;;;;;;22.13;89.10;98904.31;5092855;28;20150;-82
2023/07/02 00:39:18;;;;;;;16.23;3.22;;;;;;;21.98;89.52;98904.50;5090408;28;20024;-84
2023/07/02 00:41:46;;;;;;;3.90;2.38;;;;;;;21.86;90.16;98885.75;5070886;28;20834;-80
2023/07/02 00:44:15;;;;;;;5.32;2.42;;;;;;;21.76;91.81;98902.53;5095288;28;20474;-81
2023/07/02 00:46:40;;;;;;;3.30;2.38;;;;;;;21.99;91.02;98906.19;5095478;28;20055;-81
2023/07/02 00:49:07;;;;;;;3.70;2.88;;;;;;;21.98;90.86;98895.56;5092159;28;20024;-82
2023/07/02 00:51:33;;;;;;;3.78;2.47;;;;;;;21.86;92.32;98880.38;5090756;28;20032;-85
2023/07/02 00:53:58;;;;;;;6.22;3.67;;;;;;;21.85;91.69;98873.31;5096193;28;20125;-82
2023/07/02 00:56:26;;;;;;;5.82;3.40;;;;;;;21.90;91.03;98882.72;5089777;28;20074;-83
2023/07/02 00:58:53;;;;;;;5.90;3.67;;;;;;;22.16;90.51;98899.53;5090947;28;20031;-82
2023/07/02 01:01:28;;;;;;;8.57;2.63;;;;;;;22.03;91.12;98893.41;5095323;28;20166;-83
2023/07/02 01:04:00;;;;;;;3.85;2.17;;;;;;;22.21;91.10;98923.38;5096774;28;20078;-82
2023/07/02 01:06:31;;;;;;;4.38;2.70;;;;;;;22.18;91.01;98897.63;5092156;28;20035;-82
2023/07/02 01:09:04;;;;;;;6.00;3.70;;;;;;;22.14;91.06;98880.00;5092838;28;20020;-82
2023/07/02 01:11:35;;;;;;;5.32;3.63;;;;;;;22.10;92.07;98894.63;5093409;28;20081;-84
2023/07/02 01:14:33;;;;;;;9.50;4.60;;;;;;;22.22;90.71;98902.75;5091101;28;20028;-83
2023/07/02 01:17:01;;;;;;;8.80;4.68;;;;;;;22.08;89.95;98883.16;5072834;28;20043;-84
2023/07/02 01:19:44;;;;;;;8.48;5.18;;;;;;;22.15;90.06;98913.09;5093644;28;20059;-82
2023/07/02 01:22:11;;;;;;;6.05;3.13;;;;;;;21.97;90.10;98881.28;5075651;28;20113;-83
2023/07/02 01:24:38;;;;;;;6.55;2.85;;;;;;;22.04;90.50;98880.84;5091947;28;20070;-83
2023/07/02 01:27:04;;;;;;;4.32;2.67;;;;;;;22.22;89.72;98903.59;5092583;28;20019;-83
2023/07/02 01:29:31;;;;;;;6.40;3.17;;;;;;;21.70;90.89;98857.34;5092308;28;20036;-83
2023/07/02 01:31:57;;;;;;;5.25;3.22;;;;;;;21.92;91.17;98875.41;5094527;28;20565;-82
2023/07/02 01:34:23;;;;;;;6.45;2.53;;;;;;;22.15;91.00;98902.34;5095109;28;20038;-82
2023/07/02 01:36:49;;;;;;;6.03;2.95;;;;;;;22.13;90.36;98883.66;5093618;28;20032;-84
2023/07/02 01:39:15;;;;;;;4.13;2.90;;;;;;;22.09;90.71;98867.91;5091398;28;20478;-83
2023/07/02 01:41:49;;;;;;;5.82;2.60;;;;;;;22.30;90.38;98890.47;5099461;28;20033;-82
2023/07/02 01:44:14;;;;;;;4.90;3.08;;;;;;;22.41;89.65;98881.59;5089892;28;20035;-83
2023/07/02 01:46:40;;;;;;;6.85;3.45;;;;;;;22.42;89.16;98883.31;5090273;28;20039;-81
2023/07/02 01:49:05;;;;;;;4.82;2.78;;;;;;;22.49;89.10;98886.38;5109395;28;20054;-81
2023/07/02 01:51:31;;;;;;;4.18;2.10;;;;;;;22.31;88.96;98859.13;5078793;28;20121;-81
2023/07/02 01:53:56;;;;;;;5.63;2.70;;;;;;;22.56;88.54;98892.16;5089985;28;20036;-81
2023/07/02 01:56:21;;;;;;;5.10;2.50;;;;;;;22.22;88.39;98836.47;5090144;28;20031;-81
2023/07/02 01:58:47;;;;;;;3.85;2.70;;;;;;;22.40;88.06;98861.09;5094891;28;20034;-82
2023/07/02 02:01:12;;;;;;;5.35;2.67;;;;;;;22.31;87.93;98862.66;5097726;28;20035;-81
2023/07/02 02:03:38;;;;;;;5.57;2.40;;;;;;;22.08;88.13;98856.31;5096117;28;20027;-81
2023/07/02 02:06:03;;;;;;;5.53;3.10;;;;;;;21.96;88.40;98843.81;5096360;28;20092;-82
2023/07/02 02:08:29;;;;;;;4.38;2.80;;;;;;;22.18;88.71;98875.25;5096943;28;20067;-81
2023/07/02 02:10:54;;;;;;;5.55;2.42;;;;;;;22.24;88.46;98884.69;5078767;28;20035;-81
2023/07/02 02:13:19;;;;;;;2.33;1.88;;;;;;;21.89;89.44;98847.94;5113388;28;20036;-82
2023/07/02 02:15:45;;;;;;;6.38;2.97;;;;;;;22.11;88.20;98866.81;5100047;28;20081;-82
2023/07/02 02:18:10;;;;;;;11.73;2.60;;;;;;;21.83;88.97;98854.63;5096641;28;20060;-81
2023/07/02 02:20:36;;;;;;;12.57;3.13;;;;;;;22.07;88.66;98885.97;5096074;28;20101;-81
2023/07/02 02:23:02;;;;;;;12.43;3.60;;;;;;;22.06;88.04;98887.81;5097686;28;20111;-81
2023/07/02 02:25:27;;;;;;;5.57;2.75;;;;;;;21.59;88.20;98828.63;5096559;28;20046;-81
2023/07/02 02:27:53;;;;;;;3.90;2.42;;;;;;;22.13;87.32;98880.97;5096370;28;20024;-81
2023/07/02 02:30:18;;;;;;;4.95;2.38;;;;;;;22.00;87.41;98850.69;5096467;28;20024;-81
2023/07/02 02:32:44;;;;;;;3.60;2.30;;;;;;;22.09;87.67;98862.53;5097632;28;20115;-82
2023/07/02 02:35:09;;;;;;;6.70;2.70;;;;;;;21.85;87.43;98815.09;5096597;28;20413;-82
2023/07/02 02:37:38;;;;;;;6.45;2.97;;;;;;;22.02;85.99;98848.72;5096843;28;20108;-82
2023/07/02 02:40:05;;;;;;;6.90;2.72;;;;;;;21.64;86.72;98834.53;5096787;28;20410;-83
2023/07/02 02:42:31;;;;;;;3.67;2.70;;;;;;;21.85;85.58;98836.56;5096727;28;20028;-81
2023/07/02 02:44:56;;;;;;;3.35;2.17;;;;;;;21.94;86.42;98883.34;5078646;28;20120;-81
2023/07/02 02:47:21;;;;;;;4.70;3.08;;;;;;;21.92;86.48;98893.34;5096508;28;20032;-82
2023/07/02 02:49:47;;;;;;;2.78;1.92;;;;;;;21.98;86.48;98898.25;5096317;28;20397;-82
2023/07/02 02:52:14;;;;;;;4.30;2.55;;;;;;;21.76;87.46;98890.94;5096054;28;20425;-81
2023/07/02 02:54:40;;;;;;;6.28;2.22;;;;;;;21.82;87.18;98880.59;5097148;28;20032;-82
2023/07/02 02:57:05;;;;;;;7.72;2.30;;;;;;;21.89;87.14;98886.38;5097106;28;20069;-82
2023/07/02 02:59:30;;;;;;;2.80;1.83;;;;;;;21.87;86.67;98874.88;5098149;27;20032;-82
2023/07/02 03:01:56;;;;;;;4.97;2.65;;;;;;;21.59;86.23;98825.09;5097570;27;20028;-82
2023/07/02 03:04:24;;;;;;;3.53;2.28;;;;;;;21.76;86.47;98867.63;5111138;28;20130;-83
2023/07/02 03:06:51;;;;;;;2.38;1.65;;;;;;;21.85;87.19;98901.00;5108139;28;20489;-83
2023/07/02 03:09:17;;;;;;;3.60;2.42;;;;;;;22.06;87.12;98908.41;5107004;28;20514;-83
2023/07/02 03:11:42;;;;;;;5.90;3.15;;;;;;;21.91;87.60;98900.53;5093088;28;20107;-83
2023/07/02 03:14:07;;;;;;;3.00;2.60;;;;;;;22.04;87.28;98913.91;5105625;28;20028;-84
2023/07/02 03:16:33;;;;;;;4.07;2.83;;;;;;;22.04;87.21;98895.09;5113194;28;20038;-83
2023/07/02 03:19:00;;;;;;;5.72;2.67;;;;;;;22.14;87.17;98906.88;5112956;28;20027;-83
2023/07/02 03:21:25;;;;;;;5.55;3.05;;;;;;;21.87;86.28;98882.09;5112075;28;20126;-81
2023/07/02 03:23:51;;;;;;;7.80;4.30;;;;;;;22.07;85.83;98937.84;5111373;28;20118;-82
2023/07/02 03:26:16;;;;;;;4.32;2.30;;;;;;;21.90;86.57;98920.28;5112993;28;20401;-82
2023/07/02 03:28:41;;;;;;;4.85;2.78;;;;;;;21.87;87.65;98919.69;5112762;28;20396;-82
2023/07/02 03:31:07;;;;;;;6.72;3.10;;;;;;;22.08;86.79;98933.34;5112702;28;20038;-83
2023/07/02 03:33:32;;;;;;;6.07;4.10;;;;;;;22.00;87.38;98940.13;5097045;28;20020;-82
2023/07/02 03:35:58;;;;;;;7.85;3.35;;;;;;;22.07;86.25;98928.94;5092784;28;20514;-82
2023/07/02 03:38:24;;;;;;;5.68;3.28;;;;;;;21.90;86.27;98922.13;5092417;28;20481;-82
2023/07/02 03:40:49;;;;;;;4.40;2.80;;;;;;;21.82;86.85;98936.13;5092031;28;20040;-81
2023/07/02 03:43:15;;;;;;;4.80;2.90;;;;;;;21.71;87.43;98949.47;5091886;28;20047;-82
2023/07/02 03:45:40;;;;;;;6.25;2.90;;;;;;;21.88;87.16;98962.50;5092891;28;20044;-82
2023/07/02 03:48:05;;;;;;;6.35;3.45;;;;;;;21.82;86.68;98969.19;5092411;28;20031;-82
2023/07/02 03:50:31;;;;;;;9.68;2.85;;;;;;;21.77;87.26;98941.81;5072807;28;20075;-84
2023/07/02 03:52:56;;;;;;;7.35;3.58;;;;;;;21.99;86.76;98957.19;5091942;28;20032;-82
2023/07/02 03:55:22;;;;;;;5.68;3.40;;;;;;;21.95;86.74;98945.00;5099722;28;20020;-82
2023/07/02 03:57:47;;;;;;;6.43;4.57;;;;;;;22.15;86.55;98966.81;5101037;28;20501;-82
2023/07/02 04:00:13;;;;;;;3.78;2.72;;;;;;;22.05;86.80;98938.94;5092167;28;20036;-82
2023/07/02 04:02:38;;;;;;;7.60;3.50;;;;;;;22.29;85.96;98946.97;5103638;28;20028;-85
2023/07/02 04:05:04;;;;;;;6.82;3.78;;;;;;;22.35;85.61;98950.09;5110322;28;20055;-83
2023/07/02 04:07:30;;;;;;;12.85;3.35;;;;;;;22.23;86.07;98928.63;5093641;28;20801;-80
2023/07/02 04:09:55;;;;;;;4.22;3.00;;;;;;;22.33;85.20;98929.69;5094508;28;20119;-81
2023/07/02 04:12:21;;;;;;;6.00;3.85;;;;;;;22.44;85.53;98953.91;5111618;28;20485;-82
2023/07/02 04:14:47;;;;;;;5.78;4.68;;;;;;;22.60;85.66;98971.53;5092367;28;20052;-82
2023/07/02 04:17:12;;;;;;;4.78;2.67;;;;;;;22.58;84.78;98942.09;5091415;28;20028;-83
2023/07/02 04:19:38;;;;;;;4.13;2.95;;;;;;;22.75;84.97;98965.00;5098685;28;20024;-82
2023/07/02 04:22:03;;;;;;;6.97;2.58;;;;;;;22.58;85.85;98947.47;5097699;28;20036;-82
2023/07/02 04:24:29;;;;;;;5.88;2.88;;;;;;;22.57;86.51;98923.41;5092126;28;20082;-82
2023/07/02 04:26:54;;;;;;;11.07;3.40;;;;;;;22.60;87.25;98950.03;5073223;28;20085;-82
2023/07/02 04:29:20;;;;;;;6.60;3.78;;;;;;;22.43;87.12;98929.84;5091082;28;20028;-82
2023/07/02 04:31:45;;;;;;;5.95;2.83;;;;;;;22.75;86.91;98972.22;5091376;28;20497;-82
2023/07/02 04:34:11;;;;;;;4.72;2.78;;;;;;;22.67;86.16;98970.09;5073742;28;20027;-82
2023/07/02 04:36:36;;;;;;;4.30;2.97;;;;;;;22.51;86.25;98984.72;5092659;28;20032;-81
2023/07/02 04:39:02;;;;;;;3.38;2.28;;;;;;;22.56;85.90;99003.19;5092369;28;20105;-82
2023/07/02 04:41:29;;;;;;;5.60;2.78;;;;;;;22.67;85.28;98983.56;5090820;28;20024;-81
2023/07/02 04:43:55;;;;;;;3.65;2.33;;;;;;;22.75;83.93;98974.91;5098537;28;20028;-81
2023/07/02 04:46:20;;;;;;;5.32;2.85;;;;;;;22.63;82.92;98974.88;5091058;28;20044;-81
2023/07/02 04:48:45;;;;;;;5.43;2.63;;;;;;;22.98;82.27;98984.72;5102045;28;20118;-81
2023/07/02 04:51:11;;;;;;;6.07;2.35;;;;;;;22.89;84.14;98988.13;5109934;28;20509;-84
2023/07/02 04:53:37;;;;;;;5.60;2.63;;;;;;;23.38;82.32;98989.69;5107220;28;20070;-81
2023/07/02 04:56:03;;;;;;;4.70;2.17;;;;;;;23.52;81.06;98971.59;5091346;28;20040;-81
2023/07/02 04:58:30;;;;;;;3.65;3.10;;;;;;;23.91;77.87;98997.19;5095775;28;20032;-81
2023/07/02 05:00:55;;;;;;;6.03;3.03;;;;;;;23.88;78.39;98961.53;5080372;28;20044;-80
2023/07/02 05:03:21;;;;;;;5.50;2.75;;;;;;;23.95;73.61;98984.31;5111092;28;20517;-81
2023/07/02 05:05:46;;;;;;;6.10;3.58;;;;;;;23.74;73.35;98973.41;5104174;28;20032;-81
2023/07/02 05:08:12;;;;;;;7.05;3.53;;;;;;;23.80;74.50;99004.38;5102822;28;20080;-81
2023/07/02 05:10:37;;;;;;;4.65;2.90;;;;;;;23.68;75.67;99009.78;5097179;28;20035;-81
2023/07/02 05:13:02;;;;;;;4.35;2.05;;;;;;;23.53;76.44;98963.41;5089918;28;20028;-81
2023/07/02 05:15:28;;;;;;;4.00;2.47;;;;;;;23.63;75.78;98974.28;5109868;28;20028;-81
2023/07/02 05:17:53;;;;;;;4.82;2.47;;;;;;;23.43;77.77;98989.31;5090461;28;20065;-81
2023/07/02 05:20:19;;;;;;;4.60;2.63;;;;;;;23.32;79.33;98995.56;5090913;28;20043;-81
2023/07/02 05:22:44;;;;;;;6.38;2.85;;;;;;;23.28;79.43;98980.66;5094047;28;20155;-81
2023/07/02 05:25:10;;;;;;;5.07;2.80;;;;;;;23.44;78.51;99012.56;5090427;28;20035;-81
2023/07/02 05:27:35;;;;;;;5.28;2.95;;;;;;;23.22;78.73;99003.50;5093328;28;20028;-81
2023/07/02 05:30:01;;;;;;;3.25;2.38;;;;;;;23.06;79.52;99006.50;5104464;28;20035;-82
2023/07/02 05:32:26;;;;;;;7.63;3.42;;;;;;;23.06;81.08;99008.34;5094919;28;20434;-82
2023/07/02 05:34:52;;;;;;;4.93;1.75;;;;;;;23.33;80.35;99023.34;5102969;28;20024;-81
2023/07/02 05:37:17;;;;;;;8.27;3.60;;;;;;;23.26;79.86;99022.94;5104651;28;20038;-81
2023/07/02 05:39:43;;;;;;;6.72;3.10;;;;;;;23.14;80.55;99011.34;5098562;28;20053;-81
2023/07/02 05:42:08;;;;;;;5.90;2.85;;;;;;;23.15;80.45;99020.25;5097513;28;20032;-81
2023/07/02 05:44:34;;;;;;;6.57;4.15;;;;;;;23.19;80.63;99021.72;5095556;28;20028;-80
2023/07/02 05:46:59;;;;;;;4.93;3.05;;;;;;;23.01;82.77;99037.41;5098514;28;20104;-81
2023/07/02 05:49:26;;;;;;;3.95;2.35;;;;;;;23.18;83.37;99033.47;5095794;28;20043;-81
2023/07/02 05:51:51;;;;;;;5.78;2.83;;;;;;;23.39;82.20;99057.84;5096348;28;20020;-82
2023/07/02 05:54:17;;;;;;;6.22;4.60;;;;;;;23.30;81.96;99050.50;5092104;28;20497;-83
2023/07/02 05:56:42;;;;;;;6.38;2.70;;;;;;;23.44;81.08;99044.88;5098337;28;20412;-82
2023/07/02 05:59:08;;;;;;;5.82;4.05;;;;;;;23.36;81.48;99039.25;5094629;28;20034;-83
2023/07/02 06:01:33;;;;;;;13.13;2.33;;;;;;;23.62;81.82;99050.66;5099794;28;20031;-86
2023/07/02 06:03:59;;;;;;;3.67;2.58;;;;;;;23.60;80.51;99023.84;5092895;28;20031;-79
2023/07/02 06:06:24;;;;;;;6.70;3.08;;;;;;;23.69;79.80;99022.22;5090808;28;20562;-79
2023/07/02 06:08:50;;;;;;;5.30;3.05;;;;;;;23.86;78.90;99034.38;5090675;28;20024;-82
2023/07/02 06:11:16;;;;;;;5.47;2.47;;;;;;;24.11;78.30;99033.25;5098328;28;20080;-81
2023/07/02 06:13:41;;;;;;;6.20;3.25;;;;;;;24.16;80.00;99051.75;5101538;28;20035;-80
2023/07/02 06:16:07;;;;;;;6.78;3.25;;;;;;;24.43;79.31;99045.06;5095285;28;20055;-81
2023/07/02 06:18:32;;;;;;;6.38;3.85;;;;;;;24.71;77.52;99013.13;5096520;28;20093;-81
2023/07/02 06:20:58;;;;;;;6.80;3.75;;;;;;;24.67;77.63;98993.66;5098925;28;20081;-81
2023/07/02 06:23:23;;;;;;;4.00;1.90;;;;;;;24.87;75.18;99043.19;5095722;28;20031;-81
2023/07/02 06:25:51;;;;;;;3.33;2.42;;;;;;;24.93;74.05;99004.03;5102574;28;20035;-81
2023/07/02 06:28:17;;;;;;;5.80;3.45;;;;;;;25.14;74.24;99042.66;5109735;28;20103;-82
2023/07/02 06:30:42;;;;;;;6.13;3.22;;;;;;;24.51;77.43;99028.25;5095286;28;20115;-81
2023/07/02 06:33:08;;;;;;;6.28;2.95;;;;;;;25.03;75.52;99023.84;5093773;28;20460;-81
2023/07/02 06:35:33;;;;;;;6.30;3.33;;;;;;;25.32;72.85;99004.34;5093031;28;20070;-80
2023/07/02 06:37:59;;;;;;;4.88;3.50;;;;;;;25.94;70.69;99034.84;5101846;28;20036;-80
2023/07/02 06:40:24;;;;;;;10.68;3.83;;;;;;;26.02;69.46;99007.19;5079223;28;20043;-80
2023/07/02 06:42:50;;;;;;;8.45;3.45;;;;;;;26.12;67.17;99027.00;5091076;28;20119;-81
2023/07/02 06:45:15;;;;;;;5.95;2.75;;;;;;;26.27;67.00;99003.09;5094367;28;20401;-79
2023/07/02 06:47:40;;;;;;;6.65;2.97;;;;;;;26.26;66.38;98986.03;5096681;28;20117;-78
2023/07/02 06:50:06;;;;;;;6.72;2.20;;;;;;;26.47;66.21;99005.81;5073569;28;20040;-80
2023/07/02 06:52:32;;;;;;;4.78;2.60;;;;;;;26.15;66.60;98986.16;5108268;28;20039;-80
2023/07/02 06:54:57;;;;;;;5.38;3.13;;;;;;;25.73;63.58;98989.88;5108130;28;20516;-80
2023/07/02 06:57:23;;;;;;;9.05;3.47;;;;;;;25.80;64.47;98987.47;5102041;28;20054;-81
2023/07/02 06:59:50;;;;;;;6.80;3.80;;;;;;;25.99;66.58;98993.94;5111981;28;20042;-80
2023/07/02 07:02:15;;;;;;;5.28;2.63;;;;;;;26.21;63.32;98992.84;5113262;28;20032;-79
2023/07/02 07:04:41;;;;;;;5.47;2.15;;;;;;;25.65;63.43;98972.63;5096152;28;20475;-82
2023/07/02 07:07:06;;;;;;;5.00;2.38;;;;;;;25.71;62.82;99026.09;5101676;28;20024;-82
2023/07/02 07:09:31;;;;;;;10.68;2.17;;;;;;;25.94;63.34;98993.50;5113343;28;20469;-81
2023/07/02 07:11:57;;;;;;;5.18;2.75;;;;;;;26.75;64.01;98991.47;5094574;28;20096;-82
2023/07/02 07:14:22;;;;;;;7.13;2.97;;;;;;;27.05;60.56;99000.41;5113180;28;20122;-83
2023/07/02 07:16:48;;;;;;;5.18;2.97;;;;;;;27.43;58.39;98993.19;5078215;28;20505;-82
2023/07/02 07:19:14;;;;;;;6.72;3.72;;;;;;;27.51;60.78;99004.16;5093280;28;20028;-83
2023/07/02 07:21:40;;;;;;;7.05;2.42;;;;;;;27.39;57.63;98980.09;5093217;28;20028;-83
2023/07/02 07:24:06;;;;;;;2.45;1.60;;;;;;;27.85;55.19;98995.44;5108943;28;20038;-83
2023/07/02 07:26:32;;;;;;;4.40;2.58;;;;;;;27.95;55.61;99002.69;5111120;28;20508;-81
2023/07/02 07:28:57;;;;;;;3.25;2.60;;;;;;;27.20;58.27;98986.41;5101505;28;20059;-83
2023/07/02 07:31:23;;;;;;;7.50;3.08;;;;;;;27.06;59.05;99003.97;5110984;28;20024;-84
2023/07/02 07:33:49;;;;;;;5.60;3.05;;;;;;;27.10;60.12;99011.66;5099178;28;20042;-81
2023/07/02 07:36:14;;;;;;;5.30;3.55;;;;;;;26.57;61.25;99006.66;5113188;28;20028;-81
2023/07/02 07:38:40;;;;;;;6.00;3.40;;;;;;;27.01;59.78;99006.25;5112753;28;20212;-83
2023/07/02 07:41:05;;;;;;;4.13;2.90;;;;;;;26.47;60.24;98978.78;5111355;28;20182;-82
2023/07/02 07:43:31;;;;;;;3.72;2.42;;;;;;;26.81;59.20;99003.56;5092840;28;20050;-82
2023/07/02 07:45:56;;;;;;;3.67;2.13;;;;;;;26.67;60.77;98976.97;5111827;28;20055;-83
2023/07/02 07:48:23;;;;;;;3.95;2.30;;;;;;;26.69;60.87;99002.84;5112165;28;20063;-82
2023/07/02 07:50:48;;;;;;;4.82;2.28;;;;;;;26.56;60.49;98992.31;5112609;28;20548;-82
2023/07/02 07:53:14;;;;;;;3.80;2.22;;;;;;;26.46;61.46;98983.31;5111961;28;20418;-83
2023/07/02 07:55:39;;;;;;;4.47;2.47;;;;;;;26.93;60.04;98969.94;5091330;28;20040;-83
2023/07/02 07:58:05;;;;;;;5.57;3.28;;;;;;;27.13;60.28;98983.44;5102993;28;20494;-83
2023/07/02 08:00:30;;;;;;;4.60;2.30;;;;;;;27.82;58.16;98987.63;5102000;28;20027;-83
2023/07/02 08:02:56;;;;;;;6.80;3.20;;;;;;;27.73;60.33;98971.41;5107298;28;20020;-83
2023/07/02 08:05:22;;;;;;;6.60;3.13;;;;;;;28.05;56.93;98979.09;5103115;28;20032;-84
2023/07/02 08:07:48;;;;;;;6.72;2.90;;;;;;;28.60;56.52;98985.44;5094844;28;20028;-82
2023/07/02 08:10:14;;;;;;;5.32;3.28;;;;;;;28.83;54.32;98973.09;5094210;28;20104;-83
2023/07/02 08:12:39;;;;;;;3.80;2.40;;;;;;;29.24;52.95;98972.53;5093504;28;20047;-81
2023/07/02 08:15:05;;;;;;;6.22;2.53;;;;;;;29.17;54.26;98982.31;5096055;28;20027;-81
2023/07/02 08:17:31;;;;;;;6.15;2.95;;;;;;;28.43;52.46;98938.31;5096017;28;20615;-82
2023/07/02 08:19:57;;;;;;;3.53;2.35;;;;;;;28.45;56.88;98968.81;5088350;28;20137;-82
2023/07/02 08:22:23;;;;;;;87.80;79.45;;;;;;;28.93;53.75;98972.97;5089680;28;20214;-83
2023/07/02 08:24:49;;;;;;;250.10;147.63;;;;;;;29.43;54.30;98968.75;5095443;28;20027;-83
2023/07/02 08:27:18;;;;;;;122.68;89.50;;;;;;;29.67;50.30;98972.59;5097477;28;20031;-83
2023/07/02 08:29:44;;;;;;;31.88;14.50;;;;;;;29.84;49.44;98957.22;5093129;28;20109;-84
2023/07/02 08:32:10;;;;;;;83.50;39.58;;;;;;;29.84;50.12;98962.66;5093976;28;20051;-82
2023/07/02 08:34:35;;;;;;;14.35;8.00;;;;;;;29.28;51.88;98968.50;5093818;28;20711;-84
2023/07/02 08:37:01;;;;;;;58.05;24.38;;;;;;;29.16;53.25;98954.28;5089404;28;20028;-83
2023/07/02 08:39:26;;;;;;;62.20;39.15;;;;;;;29.77;49.81;98962.44;5074067;28;20032;-84
2023/07/02 08:41:51;;;;;;;591.10;432.55;;;;;;;30.44;49.72;98962.47;5077861;28;20046;-80
2023/07/02 08:44:20;;;;;;;490.17;199.15;;;;;;;30.03;47.44;98918.91;5071501;28;20046;-85
2023/07/02 08:46:50;;;;;;;143.85;67.30;;;;;;;30.04;50.15;98966.78;5077202;28;20061;-82
2023/07/02 08:49:16;;;;;;;4.15;2.97;;;;;;;28.88;50.22;98927.31;5090941;28;20044;-82
2023/07/02 08:51:45;;;;;;;295.45;265.20;;;;;;;29.46;52.85;98972.00;5089090;28;20024;-82
2023/07/02 08:54:10;;;;;;;35.58;21.80;;;;;;;29.31;50.37;98937.47;5089290;28;20055;-82
2023/07/02 08:56:35;;;;;;;4.07;2.00;;;;;;;29.30;48.86;98952.88;5088619;28;20024;-82
2023/07/02 08:59:01;;;;;;;4.72;3.35;;;;;;;29.46;50.09;98976.59;5088107;28;20028;-82
2023/07/02 09:01:27;;;;;;;869.45;778.95;;;;;;;29.60;56.13;98967.81;5091942;28;20035;-83
2023/07/02 09:04:01;;;;;;;579.15;457.95;;;;;;;29.91;48.81;98958.28;5094202;28;20028;-84
2023/07/02 09:06:27;;;;;;;;;;;;;;;30.48;54.90;98972.03;5094785;28;20039;-83
2023/07/02 09:09:02;;;;;;;90.25;71.55;;;;;;;30.88;49.89;98945.81;5092802;28;20414;-84
2023/07/02 09:11:28;;;;;;;;;;;;;;;31.45;54.73;98968.53;5090926;28;20102;-84
2023/07/02 09:13:58;;;;;;;32.40;18.60;;;;;;;31.11;48.65;98942.41;5094359;28;20133;-84
2023/07/02 09:16:24;;;;;;;653.85;500.33;;;;;;;31.99;45.49;98966.97;5072679;28;20048;-83
2023/07/02 09:19:07;;;;;;;21.10;15.50;;;;;;;30.78;45.91;98971.50;5090577;28;20145;-83
2023/07/02 09:21:43;;;;;;;4.55;1.98;;;;;;;29.87;49.01;98959.63;5094643;28;20521;-84
2023/07/02 09:24:15;;;;;;;3.88;2.35;;;;;;;29.79;51.01;98963.13;5096929;28;20030;-84
2023/07/02 09:26:53;;;;;;;60.85;55.15;;;;;;;30.02;51.64;98935.38;5088006;28;20046;-82
2023/07/02 09:29:30;;;;;;;7.80;4.85;;;;;;;29.97;48.88;98931.28;5093590;28;20481;-83
2023/07/02 09:32:04;;;;;;;4.65;2.53;;;;;;;30.71;47.45;98938.69;5091464;28;20027;-82
2023/07/02 09:34:31;;;;;;;3.90;2.40;;;;;;;30.43;45.39;98911.84;5093022;28;20024;-83
2023/07/02 09:36:57;;;;;;;3.85;2.13;;;;;;;30.47;48.10;98940.38;5092043;28;20039;-83
2023/07/02 09:39:28;;;;;;;4.43;1.67;;;;;;;30.46;49.43;98933.25;5091552;28;20028;-82
2023/07/02 09:41:58;;;;;;;5.22;2.70;;;;;;;31.13;46.12;98934.06;5094109;28;20032;-83
2023/07/02 09:44:31;;;;;;;3.13;1.70;;;;;;;31.86;46.17;98946.56;5094534;28;20027;-82
2023/07/02 09:47:05;;;;;;;5.05;2.40;;;;;;;31.90;45.12;98909.75;5090790;28;20072;-81
2023/07/02 09:49:35;;;;;;;4.13;1.95;;;;;;;32.01;47.08;98911.22;5091886;28;20047;-80
2023/07/02 09:52:03;;;;;;;3.55;2.50;;;;;;;32.45;49.88;98947.94;5090860;28;20031;-82
2023/07/02 09:54:30;;;;;;;6.97;3.50;;;;;;;31.88;45.01;98949.13;5094377;28;20024;-83
2023/07/02 09:56:57;;;;;;;5.15;2.58;;;;;;;32.03;45.74;98930.13;5102429;28;20123;-83
2023/07/02 09:59:23;;;;;;;7.05;3.58;;;;;;;31.99;42.61;98926.06;5100947;28;20037;-83
2023/07/02 10:01:49;;;;;;;3.85;2.35;;;;;;;32.45;41.55;98943.31;5091085;28;20348;-82
2023/07/02 10:04:17;;;;;;;5.03;3.85;;;;;;;32.51;45.41;98960.84;5095255;28;20810;-84
2023/07/02 10:06:52;;;;;;;4.15;1.98;;;;;;;32.72;43.50;98951.16;5087490;28;20032;-83
2023/07/02 10:09:18;;;;;;;5.72;2.53;;;;;;;32.45;43.43;98928.84;5079452;28;20027;-81
2023/07/02 10:11:44;;;;;;;6.53;3.20;;;;;;;32.00;42.87;98947.69;5096262;28;20028;-82
2023/07/02 10:14:10;;;;;;;6.03;3.47;;;;;;;32.06;42.60;98948.88;5098785;28;20061;-82
2023/07/02 10:16:57;;;;;;;6.95;4.45;;;;;;;31.94;44.70;98907.50;5092666;28;20121;-81
2023/07/02 10:19:22;;;;;;;10.60;4.40;;;;;;;31.97;44.21;98934.41;5090673;28;20057;-83
2023/07/02 10:22:02;;;;;;;10.15;2.90;;;;;;;31.93;42.15;98941.25;5094781;28;20032;-83
2023/07/02 10:24:28;;;;;;;5.55;3.72;;;;;;;31.93;42.16;98936.66;5099523;28;20032;-84
2023/07/02 10:26:58;;;;;;;3.95;2.97;;;;;;;31.65;44.79;98940.88;5102229;28;20031;-83
2023/07/02 10:29:25;;;;;;;13.80;3.47;;;;;;;31.36;43.51;98917.84;5098991;28;20108;-84
2023/07/02 10:31:52;;;;;;;7.75;3.38;;;;;;;31.35;44.01;98907.94;5099355;27;20028;-83
2023/07/02 10:34:34;;;;;;;5.43;3.92;;;;;;;31.31;45.77;98921.09;5098080;27;20114;-83
2023/07/02 10:37:04;;;;;;;6.20;2.95;;;;;;;30.94;48.26;98921.63;5096268;27;20074;-84
2023/07/02 10:39:38;;;;;;;8.18;4.13;;;;;;;30.53;46.88;98912.50;5094919;27;20068;-85
2023/07/02 10:42:07;;;;;;;11.23;4.53;;;;;;;30.69;45.64;98894.44;5092177;27;20417;-82
2023/07/02 10:44:33;;;;;;;4.30;3.15;;;;;;;30.99;45.85;98913.84;5097900;28;20488;-81
2023/07/02 10:46:59;;;;;;;5.60;3.22;;;;;;;30.31;47.39;98913.16;5113764;28;20031;-81
2023/07/02 10:49:32;;;;;;;5.20;3.17;;;;;;;30.35;47.93;98933.53;5107608;28;20074;-82
2023/07/02 10:52:00;;;;;;;5.85;3.08;;;;;;;30.18;47.25;98932.66;5092896;28;20093;-81
2023/07/02 10:54:26;;;;;;;2.80;2.17;;;;;;;30.05;48.92;98903.25;5093711;28;20090;-82
2023/07/02 10:56:57;;;;;;;3.40;2.20;;;;;;;29.96;49.33;98918.69;5092937;28;20036;-82
2023/07/02 10:59:24;;;;;;;8.05;2.60;;;;;;;29.44;50.19;98897.97;5111864;28;20078;-82
2023/07/02 11:01:50;;;;;;;4.20;2.30;;;;;;;29.52;51.16;98937.03;5107721;28;20027;-82
2023/07/02 11:04:16;;;;;;;5.70;3.15;;;;;;;28.89;52.29;98937.16;5112557;28;20096;-83
2023/07/02 11:06:42;;;;;;;5.65;3.58;;;;;;;28.72;52.98;98944.34;5112608;28;20024;-82
2023/07/02 11:09:17;;;;;;;2.72;1.92;;;;;;;28.77;52.96;98937.59;5094528;28;20032;-82
2023/07/02 11:11:56;;;;;;;7.55;2.95;;;;;;;28.27;54.28;98931.72;5111233;28;20039;-82
2023/07/02 11:14:35;;;;;;;6.63;2.90;;;;;;;28.30;54.40;98949.53;5113151;28;20118;-84
2023/07/02 11:17:05;;;;;;;5.18;2.85;;;;;;;28.12;56.01;98898.03;5113127;28;20024;-84
2023/07/02 11:19:31;;;;;;;8.57;3.35;;;;;;;27.77;63.37;98914.06;5112794;28;20093;-83
2023/07/02 11:21:58;;;;;;;5.63;3.00;;;;;;;26.60;69.00;98873.88;5110905;28;20093;-89
2023/07/02 11:24:36;;;;;;;5.72;3.20;;;;;;;26.50;71.74;98910.91;5112149;28;20024;-84
2023/07/02 11:27:05;;;;;;;5.82;3.00;;;;;;;26.47;70.18;98898.53;5112072;28;20031;-85
2023/07/02 11:29:31;;;;;;;5.47;2.20;;;;;;;26.68;66.69;98921.84;5111597;28;20507;-84